createdAt,value
2022-11-08T00:05:20.314Z,14.19
2022-11-08T00:11:42.777Z,12.06
2022-11-08T00:17:44.516Z,13.27
2022-11-08T00:24:05.516Z,14.45
2022-11-08T00:30:17.269Z,12.15
2022-11-08T00:36:48.178Z,13.31
2022-11-08T00:43:10.975Z,13.95
2022-11-08T00:48:44.203Z,11.95
2022-11-08T00:55:07.088Z,12.65
2022-11-08T01:01:51.626Z,13.99
2022-11-08T01:08:15.123Z,11.87
2022-11-08T01:14:56.574Z,13.35
2022-11-08T01:21:38.840Z,14.22
2022-11-08T01:28:24.661Z,12.03
2022-11-08T01:34:49.369Z,13.42
2022-11-08T01:40:18.866Z,14.51
2022-11-08T01:46:40.099Z,12.54
2022-11-08T01:52:41.977Z,13.82
2022-11-08T01:58:40.347Z,14.83
2022-11-08T02:04:06.829Z,12.71
2022-11-08T02:10:18.290Z,11.64
2022-11-08T02:16:01.468Z,13.46
2022-11-08T02:22:09.373Z,14.87
2022-11-08T02:27:56.165Z,12.66
2022-11-08T02:33:59.166Z,13.48
2022-11-08T02:39:23.997Z,14.60
2022-11-08T02:44:58.338Z,12.76
2022-11-08T02:50:19.623Z,11.69
2022-11-08T02:56:24.375Z,12.67
2022-11-08T03:02:34.866Z,14.19
2022-11-08T03:08:06.566Z,12.39
2022-11-08T03:13:37.390Z,12.94
2022-11-08T03:19:30.165Z,14.39
2022-11-08T03:24:53.624Z,12.60
2022-11-08T03:30:42.673Z,11.57
2022-11-08T03:37:23.937Z,13.17
2022-11-08T03:44:05.329Z,14.07
2022-11-08T03:50:09.357Z,12.06
2022-11-08T03:56:29.847Z,13.24
2022-11-08T04:02:01.704Z,14.18
2022-11-08T04:08:02.237Z,12.24
2022-11-08T04:14:04.145Z,11.06
2022-11-08T04:20:25.256Z,12.58
2022-11-08T04:26:39.304Z,13.82
2022-11-08T04:32:22.229Z,11.78
2022-11-08T04:37:54.678Z,12.72
2022-11-08T04:43:36.125Z,14.19
2022-11-08T04:49:23.470Z,12.17
2022-11-08T04:55:26.101Z,10.90
2022-11-08T05:01:38.658Z,12.32
2022-11-08T05:07:48.168Z,13.20
2022-11-08T05:13:31.552Z,10.97
2022-11-08T05:19:13.162Z,11.62
2022-11-08T05:25:00.102Z,12.95
2022-11-08T05:30:56.418Z,10.79
2022-11-08T05:37:01.815Z,11.69
2022-11-08T05:42:30.803Z,13.13
2022-11-08T05:48:24.620Z,11.28
2022-11-08T05:54:19.163Z,12.34
2022-11-08T06:00:26.746Z,13.74
2022-11-08T06:06:29.969Z,11.61
2022-11-08T06:12:44.068Z,10.62
2022-11-08T06:18:35.677Z,12.20
2022-11-08T06:24:28.858Z,13.40
2022-11-08T06:30:08.578Z,11.59
2022-11-08T06:35:31.341Z,12.45
2022-11-08T06:40:54.512Z,14.02
2022-11-08T06:47:10.872Z,12.27
2022-11-08T06:53:42.858Z,11.14
2022-11-08T06:59:34.977Z,13.17
2022-11-08T07:04:59.212Z,14.17
2022-11-08T07:10:42.824Z,12.50
2022-11-08T07:16:15.938Z,11.60
2022-11-08T07:21:54.925Z,12.71
2022-11-08T07:27:22.071Z,14.47
2022-11-08T07:33:44.170Z,12.80
2022-11-08T07:40:27.891Z,11.75
2022-11-08T07:47:13.610Z,13.79
2022-11-08T07:53:26.154Z,14.85
2022-11-08T07:59:29.813Z,13.18
2022-11-08T08:05:47.873Z,12.49
2022-11-08T08:11:33.655Z,14.44
2022-11-08T08:18:18.803Z,15.86
2022-11-08T08:25:08.790Z,14.02
2022-11-08T08:32:08.510Z,13.19
2022-11-08T08:38:18.575Z,12.71
2022-11-08T08:44:57.679Z,14.50
2022-11-08T08:51:00.086Z,15.70
2022-11-08T08:57:05.713Z,14.30
2022-11-08T09:03:47.247Z,13.50
2022-11-08T09:10:30.540Z,13.05
2022-11-08T09:16:58.643Z,12.90
2022-11-08T09:48:27.659Z,14.48
2022-11-08T10:01:02.179Z,15.15
2022-11-08T10:07:00.880Z,14.72
2022-11-08T10:13:15.979Z,14.56
2022-11-08T10:25:14.851Z,15.43
2022-11-08T10:31:07.029Z,17.45
2022-11-08T10:37:56.360Z,16.21
2022-11-08T11:02:07.751Z,15.30
2022-11-08T11:07:50.702Z,15.37
2022-11-08T11:13:39.540Z,15.51
2022-11-08T11:26:41.689Z,15.77
2022-11-08T11:32:51.400Z,15.79
2022-11-08T11:38:35.909Z,15.81
2022-11-08T11:44:24.756Z,15.87
2022-11-08T11:56:58.622Z,16.06
2022-11-08T14:09:46.850Z,21.01
2022-11-08T14:16:34.641Z,21.11
2022-11-08T14:23:24.182Z,21.21
2022-11-08T14:30:13.321Z,21.16
2022-11-08T14:36:57.710Z,21.09
2022-11-08T14:56:57.869Z,20.53
2022-11-08T15:03:56.559Z,20.24
2022-11-08T15:10:41.016Z,19.95
2022-11-08T15:17:36.852Z,19.67
2022-11-08T15:43:22.199Z,18.57
2022-11-08T15:50:19.768Z,18.39
2022-11-08T15:56:56.147Z,17.61
2022-11-08T16:02:44.031Z,16.77
2022-11-08T16:08:17.021Z,16.13
2022-11-08T16:13:43.622Z,15.59
2022-11-08T16:19:34.544Z,15.13
2022-11-08T16:32:49.469Z,14.08
2022-11-08T16:38:11.990Z,13.73
2022-11-08T16:43:34.329Z,13.40
2022-11-08T16:50:01.882Z,13.13
2022-11-08T17:03:30.184Z,15.82
2022-11-08T17:08:54.559Z,16.76
2022-11-08T17:40:02.473Z,14.41
2022-11-08T17:45:26.613Z,16.13
2022-11-08T17:50:51.213Z,14.53
2022-11-08T17:56:17.742Z,13.57
2022-11-08T18:01:44.323Z,12.98
2022-11-08T18:07:12.004Z,12.53
2022-11-08T18:12:37.912Z,13.88
2022-11-08T18:26:44.892Z,13.81
2022-11-08T18:39:11.323Z,12.40
2022-11-08T18:44:56.043Z,13.82
2022-11-08T18:50:24.675Z,15.52
2022-11-08T18:56:29.620Z,13.86
2022-11-08T19:02:23.478Z,12.81
2022-11-08T19:08:18.960Z,12.18
2022-11-08T19:14:08.165Z,13.69
2022-11-08T19:19:59.275Z,15.33
2022-11-08T19:26:24.910Z,13.48
2022-11-08T19:32:54.807Z,12.50
2022-11-08T19:39:35.776Z,14.46
2022-11-08T19:45:27.905Z,15.44
2022-11-08T19:51:29.214Z,13.59
2022-11-08T19:57:46.581Z,12.63
2022-11-08T20:03:45.220Z,14.17
2022-11-08T20:10:20.355Z,15.25
2022-11-08T20:16:32.069Z,13.31
2022-11-08T20:23:14.406Z,12.33
2022-11-08T20:30:45.341Z,14.07
2022-11-08T20:36:14.667Z,14.59
2022-11-08T20:41:47.325Z,12.98
2022-11-08T20:47:10.773Z,13.71
2022-11-08T20:52:33.605Z,15.26
2022-11-08T20:58:00.454Z,13.44
2022-11-08T21:03:24.925Z,12.34
2022-11-08T21:08:59.225Z,13.28
2022-11-08T21:14:28.222Z,15.13
2022-11-08T21:19:52.183Z,13.29
2022-11-08T21:25:17.802Z,13.96
2022-11-08T21:30:46.203Z,15.49
2022-11-08T21:36:10.549Z,13.57
2022-11-08T21:41:40.716Z,12.44
2022-11-08T21:47:12.357Z,13.60
2022-11-08T21:52:36.170Z,15.24
2022-11-08T21:58:08.552Z,13.37
2022-11-08T22:03:33.861Z,13.96
2022-11-08T22:08:57.142Z,15.41
2022-11-08T22:14:19.808Z,13.54
2022-11-08T22:19:43.723Z,12.41
2022-11-08T22:25:11.979Z,13.44
2022-11-08T22:30:38.373Z,15.17
2022-11-08T22:36:04.275Z,13.30
2022-11-08T22:41:28.552Z,13.84
2022-11-08T22:46:52.093Z,15.31
2022-11-08T22:52:16.809Z,13.40
2022-11-08T22:58:21.545Z,13.83
2022-11-08T23:04:14.074Z,15.06
2022-11-08T23:09:40.351Z,13.11
2022-11-08T23:15:42.947Z,13.78
2022-11-08T23:21:30.008Z,15.04
2022-11-08T23:27:13.550Z,13.06
2022-11-08T23:32:46.697Z,13.95
2022-11-08T23:38:13.820Z,15.25
2022-11-08T23:43:55.304Z,13.33
2022-11-08T23:49:36.267Z,14.11
2022-11-08T23:55:01.610Z,15.36
